createdAt,value
2018-12-16T00:00:09.093Z,3.218688
2018-12-16T00:00:21.454Z,3.218688
2018-12-16T00:00:33.809Z,3.218688
2018-12-16T00:00:46.157Z,3.218688
2018-12-16T00:00:58.534Z,3.218688
2018-12-16T00:01:10.942Z,3.218688
2018-12-16T00:01:23.289Z,3.218688
2018-12-16T00:01:35.626Z,3.218688
2018-12-16T00:01:47.991Z,3.218688
2018-12-16T00:02:00.336Z,3.218688
2018-12-16T00:02:12.685Z,4.828032
2018-12-16T00:02:25.022Z,14.484096
2018-12-16T00:02:37.363Z,14.484096
2018-12-16T00:02:49.724Z,14.484096
2018-12-16T00:03:02.067Z,14.484096
2018-12-16T00:03:14.412Z,6.437376
2018-12-16T00:03:26.761Z,6.437376
2018-12-16T00:03:39.112Z,6.437376
2018-12-16T00:03:51.450Z,9.656064
2018-12-16T00:04:03.814Z,9.656064
2018-12-16T00:04:16.140Z,4.828032
2018-12-16T00:04:28.505Z,4.828032
2018-12-16T00:04:42.510Z,4.828032
2018-12-16T00:05:01.215Z,11.265408
2018-12-16T00:05:13.583Z,9.656064
2018-12-16T00:05:25.941Z,9.656064
2018-12-16T00:05:38.299Z,9.656064
2018-12-16T00:05:50.868Z,9.656064
2018-12-16T00:06:03.236Z,9.656064
2018-12-16T00:06:15.569Z,6.437376
2018-12-16T00:06:27.905Z,9.656064
2018-12-16T00:06:40.240Z,9.656064
2018-12-16T00:06:52.596Z,9.656064
2018-12-16T00:07:04.997Z,8.04672
2018-12-16T00:07:17.337Z,8.04672
2018-12-16T00:07:29.691Z,8.04672
2018-12-16T00:07:42.158Z,11.265408
2018-12-16T00:07:54.504Z,12.874752
2018-12-16T00:08:06.845Z,8.04672
2018-12-16T00:08:19.175Z,8.04672
2018-12-16T00:08:31.510Z,8.04672
2018-12-16T00:08:43.871Z,8.04672
2018-12-16T00:08:56.218Z,8.04672
2018-12-16T00:09:08.570Z,1.609344
2018-12-16T00:09:20.993Z,1.609344
2018-12-16T00:09:33.349Z,3.218688
2018-12-16T00:09:45.677Z,3.218688
2018-12-16T00:09:58.092Z,3.218688
2018-12-16T00:10:10.468Z,6.437376
2018-12-16T00:10:22.809Z,9.656064
2018-12-16T00:10:35.141Z,9.656064
2018-12-16T00:10:47.474Z,9.656064
2018-12-16T00:10:59.824Z,9.656064
2018-12-16T00:11:12.178Z,1.609344
2018-12-16T00:11:24.519Z,9.656064
2018-12-16T00:11:36.857Z,9.656064
2018-12-16T00:11:49.208Z,9.656064
2018-12-16T00:12:01.540Z,9.656064
2018-12-16T00:12:13.884Z,6.437376
2018-12-16T00:12:26.238Z,8.04672
2018-12-16T00:12:38.577Z,8.04672
2018-12-16T00:12:51.282Z,8.04672
2018-12-16T00:13:05.084Z,8.04672
2018-12-16T00:13:17.426Z,8.04672
2018-12-16T00:13:29.767Z,14.484096
2018-12-16T00:13:42.110Z,14.484096
2018-12-16T00:13:54.459Z,14.484096
2018-12-16T00:14:06.807Z,4.828032
2018-12-16T00:14:19.143Z,6.437376
2018-12-16T00:14:31.477Z,6.437376
2018-12-16T00:14:43.871Z,8.04672
2018-12-16T00:14:56.236Z,8.04672
2018-12-16T00:15:08.594Z,6.437376
2018-12-16T00:15:20.935Z,6.437376
2018-12-16T00:15:33.282Z,6.437376
2018-12-16T00:15:45.645Z,6.437376
2018-12-16T00:15:58.046Z,8.04672
2018-12-16T00:16:10.400Z,3.218688
2018-12-16T00:16:22.766Z,3.218688
2018-12-16T00:16:35.121Z,3.218688
2018-12-16T00:16:47.483Z,3.218688
2018-12-16T00:16:59.832Z,3.218688
2018-12-16T00:17:12.241Z,3.218688
2018-12-16T00:17:24.588Z,3.218688
2018-12-16T00:17:36.943Z,3.218688
2018-12-16T00:17:49.311Z,4.828032
2018-12-16T00:18:01.663Z,6.437376
2018-12-16T00:18:14.020Z,8.04672
2018-12-16T00:18:26.382Z,9.656064
2018-12-16T00:18:38.845Z,9.656064
2018-12-16T00:18:51.183Z,9.656064
2018-12-16T00:19:03.531Z,9.656064
2018-12-16T00:19:15.883Z,6.437376
2018-12-16T00:19:28.270Z,6.437376
2018-12-16T00:19:40.775Z,12.874752
2018-12-16T00:19:53.106Z,12.874752
2018-12-16T00:20:05.443Z,14.484096
2018-12-16T00:20:17.796Z,14.484096
2018-12-16T00:20:30.127Z,14.484096
2018-12-16T00:20:42.480Z,14.484096
2018-12-16T00:20:54.817Z,14.484096
2018-12-16T00:21:07.573Z,1.609344
2018-12-16T00:21:20.777Z,3.218688
2018-12-16T00:21:33.135Z,3.218688
2018-12-16T00:21:45.488Z,3.218688
2018-12-16T00:21:57.829Z,4.828032
2018-12-16T00:22:10.175Z,4.828032
2018-12-16T00:22:22.510Z,4.828032
2018-12-16T00:22:41.088Z,6.437376
2018-12-16T00:22:53.440Z,9.656064
2018-12-16T00:23:05.790Z,11.265408
2018-12-16T00:23:18.201Z,12.874752
2018-12-16T00:23:30.534Z,16.09344
2018-12-16T00:23:42.899Z,16.09344
2018-12-16T00:23:55.255Z,16.09344
2018-12-16T00:24:07.618Z,6.437376
2018-12-16T00:24:20.033Z,8.04672
2018-12-16T00:24:32.390Z,8.04672
2018-12-16T00:24:44.768Z,8.04672
2018-12-16T00:24:57.232Z,11.265408
2018-12-16T00:25:09.585Z,8.04672
2018-12-16T00:25:21.944Z,11.265408
2018-12-16T00:25:34.295Z,12.874752
2018-12-16T00:25:46.630Z,12.874752
2018-12-16T00:25:58.984Z,12.874752
2018-12-16T00:26:11.346Z,4.828032
2018-12-16T00:26:23.698Z,6.437376
2018-12-16T00:26:36.236Z,6.437376
2018-12-16T00:26:48.578Z,6.437376
2018-12-16T00:27:00.986Z,6.437376
2018-12-16T00:27:13.329Z,4.828032
2018-12-16T00:27:25.763Z,9.656064
2018-12-16T00:27:38.098Z,9.656064
2018-12-16T00:27:50.442Z,9.656064
2018-12-16T00:28:02.769Z,9.656064
2018-12-16T00:28:15.104Z,16.09344
2018-12-16T00:28:27.439Z,16.09344
2018-12-16T00:28:39.791Z,16.09344
2018-12-16T00:28:52.123Z,16.09344
2018-12-16T00:29:04.475Z,16.09344
2018-12-16T00:29:16.829Z,1.609344
2018-12-16T00:29:29.185Z,1.609344
2018-12-16T00:29:41.529Z,8.04672
2018-12-16T00:29:53.911Z,14.484096
2018-12-16T00:30:06.284Z,12.874752
2018-12-16T00:30:18.624Z,14.484096
2018-12-16T00:30:30.983Z,14.484096
2018-12-16T00:30:43.340Z,14.484096
2018-12-16T00:30:55.754Z,14.484096
2018-12-16T00:31:08.100Z,3.218688
2018-12-16T00:31:20.512Z,4.828032
2018-12-16T00:31:32.867Z,4.828032
2018-12-16T00:31:45.230Z,6.437376
2018-12-16T00:31:57.577Z,9.656064
2018-12-16T00:32:09.910Z,8.04672
2018-12-16T00:32:22.451Z,8.04672
2018-12-16T00:32:34.793Z,8.04672
2018-12-16T00:32:47.139Z,8.04672
2018-12-16T00:32:59.479Z,8.04672
2018-12-16T00:33:11.802Z,9.656064
2018-12-16T00:33:24.283Z,9.656064
2018-12-16T00:33:36.606Z,9.656064
2018-12-16T00:33:48.966Z,9.656064
2018-12-16T00:34:01.320Z,9.656064
2018-12-16T00:34:13.668Z,1.609344
2018-12-16T00:34:26.023Z,1.609344
2018-12-16T00:34:38.362Z,6.437376
2018-12-16T00:34:50.712Z,6.437376
2018-12-16T00:35:03.037Z,9.656064
2018-12-16T00:35:15.656Z,6.437376
2018-12-16T00:35:27.999Z,6.437376
2018-12-16T00:35:40.330Z,6.437376
2018-12-16T00:35:52.841Z,6.437376
2018-12-16T00:36:05.207Z,6.437376
2018-12-16T00:36:17.600Z,6.437376
2018-12-16T00:36:30.110Z,6.437376
2018-12-16T00:36:42.451Z,6.437376
2018-12-16T00:36:54.875Z,6.437376
2018-12-16T00:37:07.203Z,3.218688
2018-12-16T00:37:19.635Z,8.04672
2018-12-16T00:37:32.229Z,8.04672
2018-12-16T00:37:44.685Z,8.04672
2018-12-16T00:37:57.028Z,8.04672
2018-12-16T00:38:09.385Z,1.609344
2018-12-16T00:38:21.788Z,3.218688
2018-12-16T00:38:34.132Z,3.218688
2018-12-16T00:38:46.481Z,3.218688
2018-12-16T00:38:58.813Z,6.437376
2018-12-16T00:39:11.345Z,3.218688
2018-12-16T00:39:23.849Z,3.218688
2018-12-16T00:39:36.215Z,6.437376
2018-12-16T00:39:48.553Z,6.437376
2018-12-16T00:40:01.009Z,11.265408
2018-12-16T00:40:13.392Z,12.874752
2018-12-16T00:40:25.821Z,12.874752
2018-12-16T00:40:38.172Z,12.874752
2018-12-16T00:40:50.514Z,12.874752
2018-12-16T00:41:02.965Z,12.874752
2018-12-16T00:41:15.462Z,9.656064
2018-12-16T00:41:27.816Z,9.656064
2018-12-16T00:41:40.144Z,9.656064
2018-12-16T00:41:52.529Z,9.656064
2018-12-16T00:42:04.870Z,8.04672
2018-12-16T00:42:17.199Z,8.04672
2018-12-16T00:42:29.541Z,8.04672
2018-12-16T00:42:41.868Z,8.04672
2018-12-16T00:42:54.231Z,8.04672
2018-12-16T00:43:06.630Z,1.609344
2018-12-16T00:43:18.973Z,3.218688
2018-12-16T00:43:31.309Z,8.04672
2018-12-16T00:43:43.656Z,9.656064
2018-12-16T00:43:56.005Z,11.265408
2018-12-16T00:44:08.338Z,6.437376
2018-12-16T00:44:21.159Z,8.04672
2018-12-16T00:44:33.483Z,8.04672
2018-12-16T00:44:45.958Z,8.04672
2018-12-16T00:44:58.355Z,8.04672
2018-12-16T00:45:10.781Z,11.265408
2018-12-16T00:45:23.110Z,11.265408
2018-12-16T00:45:35.560Z,11.265408
2018-12-16T00:45:47.888Z,11.265408
2018-12-16T00:46:00.288Z,11.265408
2018-12-16T00:46:12.631Z,8.04672
2018-12-16T00:46:24.954Z,8.04672
2018-12-16T00:46:37.282Z,8.04672
2018-12-16T00:46:49.804Z,8.04672
2018-12-16T00:47:02.144Z,8.04672
2018-12-16T00:47:14.494Z,4.828032
2018-12-16T00:47:26.833Z,4.828032
2018-12-16T00:47:39.169Z,6.437376
2018-12-16T00:47:53.207Z,6.437376
2018-12-16T00:48:05.728Z,3.218688
2018-12-16T00:48:18.058Z,6.437376
2018-12-16T00:48:30.403Z,6.437376
2018-12-16T00:48:42.764Z,9.656064
2018-12-16T00:48:55.185Z,9.656064
2018-12-16T00:49:07.539Z,9.656064
2018-12-16T00:49:19.898Z,11.265408
2018-12-16T00:49:32.239Z,11.265408
2018-12-16T00:49:44.614Z,11.265408
2018-12-16T00:49:56.944Z,11.265408
2018-12-16T00:50:09.448Z,9.656064
2018-12-16T00:50:21.788Z,12.874752
2018-12-16T00:50:34.116Z,12.874752
2018-12-16T00:50:46.511Z,12.874752
2018-12-16T00:50:58.858Z,12.874752
2018-12-16T00:51:11.214Z,8.04672
2018-12-16T00:51:23.634Z,11.265408
2018-12-16T00:51:35.961Z,11.265408
2018-12-16T00:51:48.306Z,11.265408
2018-12-16T00:52:00.645Z,11.265408
2018-12-16T00:52:13.076Z,14.484096
2018-12-16T00:52:25.426Z,14.484096
2018-12-16T00:52:44.354Z,14.484096
2018-12-16T00:52:56.694Z,14.484096
2018-12-16T00:53:09.065Z,3.218688
2018-12-16T00:53:21.464Z,6.437376
2018-12-16T00:53:33.815Z,9.656064
2018-12-16T00:53:46.158Z,9.656064
2018-12-16T00:53:58.496Z,9.656064
2018-12-16T00:54:10.838Z,9.656064
2018-12-16T00:54:23.178Z,9.656064
2018-12-16T00:54:35.521Z,9.656064
2018-12-16T00:54:47.913Z,11.265408
2018-12-16T00:55:00.414Z,12.874752
2018-12-16T00:55:12.782Z,12.874752
2018-12-16T00:55:25.200Z,12.874752
2018-12-16T00:55:37.556Z,12.874752
2018-12-16T00:55:49.896Z,12.874752
2018-12-16T00:56:02.244Z,12.874752
2018-12-16T00:56:14.585Z,8.04672
2018-12-16T00:56:26.938Z,8.04672
2018-12-16T00:56:39.301Z,8.04672
2018-12-16T00:56:51.776Z,8.04672
2018-12-16T00:57:04.154Z,3.218688
2018-12-16T00:57:16.733Z,3.218688
2018-12-16T00:57:29.078Z,3.218688
2018-12-16T00:57:41.427Z,3.218688
2018-12-16T00:57:53.770Z,3.218688
2018-12-16T00:58:06.110Z,6.437376
2018-12-16T00:58:18.450Z,6.437376
2018-12-16T00:58:30.778Z,9.656064
2018-12-16T00:58:43.120Z,11.265408
2018-12-16T00:58:55.581Z,11.265408
2018-12-16T00:59:07.927Z,6.437376
2018-12-16T00:59:20.272Z,6.437376
2018-12-16T00:59:32.618Z,8.04672
2018-12-16T00:59:44.957Z,8.04672
2018-12-16T00:59:57.303Z,8.04672
2018-12-16T01:00:09.674Z,4.828032
2018-12-16T01:00:22.040Z,4.828032
2018-12-16T01:00:34.412Z,4.828032
2018-12-16T01:00:46.824Z,9.656064
2018-12-16T01:00:59.175Z,9.656064
2018-12-16T01:01:11.528Z,11.265408
2018-12-16T01:01:23.874Z,11.265408
2018-12-16T01:01:36.221Z,12.874752
2018-12-16T01:01:48.580Z,12.874752
2018-12-16T01:02:00.944Z,12.874752
2018-12-16T01:02:13.365Z,6.437376
2018-12-16T01:02:25.706Z,6.437376
2018-12-16T01:02:38.050Z,11.265408
2018-12-16T01:02:50.393Z,11.265408
2018-12-16T01:03:02.722Z,4.828032
2018-12-16T01:03:15.056Z,8.04672
2018-12-16T01:03:27.410Z,9.656064
2018-12-16T01:03:40.371Z,9.656064
2018-12-16T01:03:52.738Z,9.656064
2018-12-16T01:04:05.082Z,8.04672
2018-12-16T01:04:17.425Z,8.04672
2018-12-16T01:04:29.771Z,9.656064
2018-12-16T01:04:42.118Z,12.874752
2018-12-16T01:04:54.453Z,12.874752
2018-12-16T01:05:06.790Z,8.04672
2018-12-16T01:05:19.138Z,9.656064
2018-12-16T01:05:31.476Z,9.656064
2018-12-16T01:05:43.815Z,9.656064
2018-12-16T01:05:56.338Z,11.265408
2018-12-16T01:06:08.684Z,12.874752
2018-12-16T01:06:21.039Z,12.874752
2018-12-16T01:06:33.371Z,12.874752
2018-12-16T01:06:45.716Z,12.874752
2018-12-16T01:06:58.079Z,12.874752
2018-12-16T01:07:10.469Z,8.04672
2018-12-16T01:07:22.874Z,8.04672
2018-12-16T01:07:35.217Z,8.04672
2018-12-16T01:07:47.719Z,8.04672
2018-12-16T01:08:00.158Z,8.04672
2018-12-16T01:08:12.500Z,3.218688
2018-12-16T01:08:24.830Z,11.265408
2018-12-16T01:08:37.175Z,11.265408
2018-12-16T01:08:49.515Z,11.265408
2018-12-16T01:09:01.893Z,12.874752
2018-12-16T01:09:14.250Z,9.656064
2018-12-16T01:09:26.607Z,9.656064
2018-12-16T01:09:38.956Z,11.265408
2018-12-16T01:09:51.293Z,11.265408
2018-12-16T01:10:03.631Z,12.874752
2018-12-16T01:10:15.968Z,12.874752
2018-12-16T01:10:28.310Z,12.874752
2018-12-16T01:10:40.661Z,12.874752
2018-12-16T01:10:53.003Z,12.874752
2018-12-16T01:11:05.333Z,3.218688
2018-12-16T01:11:17.689Z,17.702784
2018-12-16T01:11:30.035Z,17.702784
2018-12-16T01:11:42.387Z,17.702784
2018-12-16T01:11:54.811Z,17.702784
2018-12-16T01:12:07.149Z,9.656064
2018-12-16T01:12:19.490Z,11.265408
2018-12-16T01:12:31.866Z,11.265408
2018-12-16T01:12:44.285Z,11.265408
2018-12-16T01:12:56.747Z,12.874752
2018-12-16T01:13:09.096Z,11.265408
2018-12-16T01:13:21.434Z,11.265408
2018-12-16T01:13:33.777Z,11.265408
2018-12-16T01:13:46.119Z,11.265408
2018-12-16T01:13:58.472Z,11.265408
2018-12-16T01:14:10.824Z,3.218688
2018-12-16T01:14:23.159Z,3.218688
2018-12-16T01:14:35.557Z,4.828032
2018-12-16T01:14:47.885Z,4.828032
2018-12-16T01:15:00.491Z,4.828032
2018-12-16T01:15:12.828Z,8.04672
2018-12-16T01:15:25.164Z,8.04672
2018-12-16T01:15:37.505Z,8.04672
2018-12-16T01:15:49.913Z,11.265408
2018-12-16T01:16:02.273Z,11.265408
2018-12-16T01:16:14.665Z,4.828032
2018-12-16T01:16:27.005Z,6.437376
2018-12-16T01:16:39.355Z,11.265408
2018-12-16T01:16:51.706Z,14.484096
2018-12-16T01:17:04.091Z,14.484096
2018-12-16T01:17:16.434Z,14.484096
2018-12-16T01:17:28.773Z,14.484096
2018-12-16T01:17:41.110Z,14.484096
2018-12-16T01:17:53.435Z,14.484096
2018-12-16T01:18:05.778Z,8.04672
2018-12-16T01:18:18.125Z,9.656064
2018-12-16T01:18:30.480Z,12.874752
2018-12-16T01:18:42.891Z,12.874752
2018-12-16T01:18:55.232Z,12.874752
2018-12-16T01:19:07.578Z,6.437376
2018-12-16T01:19:19.983Z,6.437376
2018-12-16T01:19:32.324Z,6.437376
2018-12-16T01:19:44.769Z,6.437376
2018-12-16T01:19:57.106Z,6.437376
2018-12-16T01:20:09.478Z,1.609344
2018-12-16T01:20:21.880Z,1.609344
2018-12-16T01:20:34.220Z,3.218688
2018-12-16T01:20:46.569Z,4.828032
2018-12-16T01:20:58.940Z,4.828032
2018-12-16T01:21:11.283Z,4.828032
2018-12-16T01:21:23.781Z,8.04672
2018-12-16T01:21:36.120Z,8.04672
2018-12-16T01:21:48.470Z,8.04672
2018-12-16T01:22:00.880Z,12.874752
2018-12-16T01:22:13.229Z,11.265408
2018-12-16T01:22:25.576Z,11.265408
2018-12-16T01:22:44.469Z,11.265408
2018-12-16T01:22:56.812Z,11.265408
2018-12-16T01:23:09.153Z,3.218688
2018-12-16T01:23:21.491Z,3.218688
2018-12-16T01:23:33.829Z,3.218688
2018-12-16T01:23:46.211Z,9.656064
2018-12-16T01:23:58.551Z,11.265408
2018-12-16T01:24:10.887Z,16.09344
2018-12-16T01:24:24.095Z,16.09344
2018-12-16T01:24:36.460Z,16.09344
2018-12-16T01:24:48.810Z,16.09344
2018-12-16T01:25:01.320Z,16.09344
2018-12-16T01:25:13.713Z,9.656064
2018-12-16T01:25:26.156Z,9.656064
2018-12-16T01:25:38.496Z,9.656064
2018-12-16T01:25:50.839Z,9.656064
2018-12-16T01:26:03.265Z,3.218688
2018-12-16T01:26:15.593Z,4.828032
2018-12-16T01:26:28.093Z,4.828032
2018-12-16T01:26:40.445Z,4.828032
2018-12-16T01:26:52.799Z,6.437376
2018-12-16T01:27:05.135Z,3.218688
2018-12-16T01:27:17.482Z,3.218688
2018-12-16T01:27:29.820Z,6.437376
2018-12-16T01:27:42.179Z,6.437376
2018-12-16T01:27:54.637Z,8.04672
2018-12-16T01:28:06.972Z,3.218688
2018-12-16T01:28:19.335Z,6.437376
2018-12-16T01:28:31.684Z,6.437376
2018-12-16T01:28:44.037Z,6.437376
2018-12-16T01:28:56.377Z,6.437376
2018-12-16T01:29:08.742Z,3.218688
2018-12-16T01:29:21.113Z,6.437376
2018-12-16T01:29:33.450Z,6.437376
2018-12-16T01:29:45.801Z,6.437376
2018-12-16T01:29:58.163Z,6.437376
2018-12-16T01:30:10.518Z,3.218688
2018-12-16T01:30:22.840Z,4.828032
2018-12-16T01:30:35.260Z,6.437376
2018-12-16T01:30:47.621Z,6.437376
2018-12-16T01:31:00.001Z,6.437376
2018-12-16T01:31:12.382Z,8.04672
2018-12-16T01:31:24.722Z,8.04672
2018-12-16T01:31:37.063Z,8.04672
2018-12-16T01:31:49.397Z,8.04672
2018-12-16T01:32:01.730Z,8.04672
2018-12-16T01:32:14.368Z,4.828032
2018-12-16T01:32:26.783Z,8.04672
2018-12-16T01:32:39.180Z,8.04672
2018-12-16T01:32:51.516Z,8.04672
2018-12-16T01:33:03.860Z,12.874752
2018-12-16T01:33:16.221Z,16.09344
2018-12-16T01:33:28.593Z,16.09344
2018-12-16T01:33:40.950Z,16.09344
2018-12-16T01:33:53.275Z,16.09344
2018-12-16T01:34:05.610Z,6.437376
2018-12-16T01:34:17.960Z,6.437376
2018-12-16T01:34:30.306Z,12.874752
2018-12-16T01:34:44.444Z,12.874752
2018-12-16T01:34:56.864Z,12.874752
2018-12-16T01:35:09.228Z,8.04672
2018-12-16T01:35:21.820Z,8.04672
2018-12-16T01:35:34.163Z,14.484096
2018-12-16T01:35:46.531Z,14.484096
2018-12-16T01:35:58.976Z,14.484096
2018-12-16T01:36:11.337Z,8.04672
2018-12-16T01:36:23.681Z,12.874752
2018-12-16T01:36:36.115Z,12.874752
2018-12-16T01:36:48.521Z,12.874752
2018-12-16T01:37:00.854Z,12.874752
2018-12-16T01:37:13.227Z,8.04672
2018-12-16T01:37:25.693Z,8.04672
2018-12-16T01:37:38.181Z,14.484096
2018-12-16T01:37:50.640Z,14.484096
2018-12-16T01:38:03.034Z,4.828032
2018-12-16T01:38:15.408Z,8.04672
2018-12-16T01:38:27.804Z,12.874752
2018-12-16T01:38:40.147Z,12.874752
2018-12-16T01:38:52.541Z,12.874752
2018-12-16T01:39:04.978Z,8.04672
2018-12-16T01:39:17.323Z,8.04672
2018-12-16T01:39:29.811Z,8.04672
2018-12-16T01:39:42.143Z,8.04672
2018-12-16T01:39:54.611Z,8.04672
2018-12-16T01:40:06.963Z,9.656064
2018-12-16T01:40:19.287Z,9.656064
2018-12-16T01:40:31.628Z,9.656064
2018-12-16T01:40:44.129Z,9.656064
2018-12-16T01:40:56.521Z,9.656064
2018-12-16T01:41:08.965Z,9.656064
2018-12-16T01:41:21.311Z,9.656064
2018-12-16T01:41:33.635Z,9.656064
2018-12-16T01:41:45.985Z,9.656064
2018-12-16T01:41:58.336Z,9.656064
2018-12-16T01:42:10.680Z,8.04672
2018-12-16T01:42:23.094Z,11.265408
2018-12-16T01:42:35.436Z,12.874752
2018-12-16T01:42:47.853Z,12.874752
2018-12-16T01:43:00.210Z,12.874752
2018-12-16T01:43:12.613Z,6.437376
2018-12-16T01:43:24.962Z,9.656064
2018-12-16T01:43:37.293Z,9.656064
2018-12-16T01:43:49.629Z,9.656064
2018-12-16T01:44:01.968Z,9.656064
2018-12-16T01:44:14.302Z,3.218688
2018-12-16T01:44:26.638Z,3.218688
2018-12-16T01:44:38.999Z,6.437376
2018-12-16T01:44:51.499Z,6.437376
2018-12-16T01:45:03.849Z,3.218688
2018-12-16T01:45:16.327Z,3.218688
2018-12-16T01:45:28.690Z,3.218688
2018-12-16T01:45:41.238Z,4.828032
2018-12-16T01:45:53.586Z,11.265408
2018-12-16T01:46:05.971Z,9.656064
2018-12-16T01:46:18.330Z,12.874752
2018-12-16T01:46:30.667Z,12.874752
2018-12-16T01:46:43.020Z,12.874752
2018-12-16T01:46:55.602Z,12.874752
2018-12-16T01:47:07.956Z,9.656064
2018-12-16T01:47:20.293Z,11.265408
2018-12-16T01:47:32.625Z,11.265408
2018-12-16T01:47:45.007Z,11.265408
2018-12-16T01:47:57.494Z,11.265408
2018-12-16T01:48:09.828Z,4.828032
2018-12-16T01:48:22.252Z,4.828032
2018-12-16T01:48:34.710Z,4.828032
2018-12-16T01:48:47.049Z,8.04672
2018-12-16T01:48:59.398Z,9.656064
2018-12-16T01:49:11.749Z,8.04672
2018-12-16T01:49:24.091Z,8.04672
2018-12-16T01:49:36.525Z,12.874752
2018-12-16T01:49:48.891Z,12.874752
2018-12-16T01:50:01.386Z,12.874752
2018-12-16T01:50:13.735Z,9.656064
2018-12-16T01:50:26.060Z,11.265408
2018-12-16T01:50:38.411Z,16.09344
2018-12-16T01:50:50.757Z,16.09344
2018-12-16T01:51:03.090Z,11.265408
2018-12-16T01:51:15.804Z,11.265408
2018-12-16T01:51:28.131Z,11.265408
2018-12-16T01:51:40.525Z,11.265408
2018-12-16T01:51:52.889Z,11.265408
2018-12-16T01:52:05.226Z,3.218688
2018-12-16T01:52:17.742Z,3.218688
2018-12-16T01:52:30.210Z,4.828032
2018-12-16T01:52:42.541Z,6.437376
2018-12-16T01:53:01.293Z,6.437376
2018-12-16T01:53:13.628Z,6.437376
2018-12-16T01:53:25.953Z,6.437376
2018-12-16T01:53:38.336Z,6.437376
2018-12-16T01:53:50.697Z,6.437376
2018-12-16T01:54:03.050Z,3.218688
2018-12-16T01:54:15.387Z,8.04672
2018-12-16T01:54:27.744Z,8.04672
2018-12-16T01:54:40.100Z,9.656064
2018-12-16T01:54:52.448Z,11.265408
2018-12-16T01:55:04.923Z,8.04672
2018-12-16T01:55:17.268Z,17.702784
2018-12-16T01:55:29.593Z,17.702784
2018-12-16T01:55:42.007Z,17.702784
2018-12-16T01:55:54.337Z,17.702784
2018-12-16T01:56:06.675Z,6.437376
2018-12-16T01:56:19.013Z,9.656064
2018-12-16T01:56:31.354Z,9.656064
2018-12-16T01:56:43.907Z,9.656064
2018-12-16T01:56:56.227Z,9.656064
2018-12-16T01:57:08.576Z,9.656064
2018-12-16T01:57:20.921Z,9.656064
2018-12-16T01:57:33.252Z,11.265408
2018-12-16T01:57:45.631Z,11.265408
2018-12-16T01:57:57.980Z,11.265408
2018-12-16T01:58:10.320Z,6.437376
2018-12-16T01:58:22.660Z,6.437376
2018-12-16T01:58:35.062Z,6.437376
2018-12-16T01:58:47.452Z,6.437376
2018-12-16T01:59:00.082Z,6.437376
2018-12-16T01:59:12.441Z,6.437376
2018-12-16T01:59:24.797Z,9.656064
2018-12-16T01:59:37.191Z,11.265408
2018-12-16T01:59:49.557Z,11.265408
2018-12-16T02:00:01.924Z,11.265408
2018-12-16T02:00:14.373Z,9.656064
2018-12-16T02:00:26.810Z,9.656064
2018-12-16T02:00:39.162Z,9.656064
2018-12-16T02:00:51.606Z,9.656064
2018-12-16T02:01:03.953Z,3.218688
2018-12-16T02:01:16.381Z,6.437376
2018-12-16T02:01:28.739Z,8.04672
2018-12-16T02:01:41.099Z,9.656064
2018-12-16T02:01:53.445Z,9.656064
2018-12-16T02:02:05.821Z,8.04672
2018-12-16T02:02:18.241Z,8.04672
2018-12-16T02:02:30.596Z,8.04672
2018-12-16T02:02:42.959Z,8.04672
2018-12-16T02:02:55.319Z,8.04672
2018-12-16T02:03:07.740Z,6.437376
2018-12-16T02:03:20.089Z,6.437376
2018-12-16T02:03:32.426Z,6.437376
2018-12-16T02:03:44.766Z,6.437376
2018-12-16T02:03:57.109Z,6.437376
2018-12-16T02:04:09.444Z,3.218688
2018-12-16T02:04:21.785Z,3.218688
2018-12-16T02:04:34.139Z,3.218688
2018-12-16T02:04:46.586Z,3.218688
2018-12-16T02:04:58.928Z,6.437376
2018-12-16T02:05:11.453Z,9.656064
2018-12-16T02:05:23.786Z,9.656064
2018-12-16T02:05:36.115Z,9.656064
2018-12-16T02:05:48.450Z,9.656064
2018-12-16T02:06:00.800Z,9.656064
2018-12-16T02:06:13.215Z,6.437376
2018-12-16T02:06:25.627Z,6.437376
2018-12-16T02:06:37.986Z,6.437376
2018-12-16T02:06:50.326Z,6.437376
2018-12-16T02:07:02.771Z,6.437376
2018-12-16T02:07:15.173Z,6.437376
2018-12-16T02:07:27.549Z,6.437376
2018-12-16T02:07:39.884Z,6.437376
2018-12-16T02:07:52.416Z,6.437376
2018-12-16T02:08:04.765Z,3.218688
2018-12-16T02:08:17.110Z,6.437376
2018-12-16T02:08:30.760Z,6.437376
2018-12-16T02:08:43.107Z,6.437376
2018-12-16T02:08:55.445Z,6.437376
2018-12-16T02:09:07.799Z,4.828032
2018-12-16T02:09:20.136Z,6.437376
2018-12-16T02:09:32.490Z,6.437376
2018-12-16T02:09:44.840Z,6.437376
2018-12-16T02:09:57.175Z,6.437376
2018-12-16T02:10:09.528Z,1.609344
2018-12-16T02:10:21.885Z,1.609344
2018-12-16T02:10:34.365Z,1.609344
2018-12-16T02:10:46.696Z,6.437376
2018-12-16T02:10:59.039Z,6.437376
2018-12-16T02:11:11.375Z,3.218688
2018-12-16T02:11:23.711Z,3.218688
2018-12-16T02:11:36.053Z,4.828032
2018-12-16T02:11:48.403Z,4.828032
2018-12-16T02:12:00.756Z,8.04672
2018-12-16T02:12:13.161Z,11.265408
2018-12-16T02:12:25.507Z,11.265408
2018-12-16T02:12:37.862Z,11.265408
2018-12-16T02:12:50.396Z,11.265408
2018-12-16T02:13:02.762Z,11.265408
2018-12-16T02:13:15.110Z,6.437376
2018-12-16T02:13:27.461Z,9.656064
2018-12-16T02:13:39.803Z,11.265408
2018-12-16T02:13:52.130Z,11.265408
2018-12-16T02:14:04.471Z,8.04672
2018-12-16T02:14:16.828Z,12.874752
2018-12-16T02:14:29.185Z,14.484096
2018-12-16T02:14:41.526Z,14.484096
2018-12-16T02:14:54.034Z,14.484096
2018-12-16T02:15:06.383Z,8.04672
2018-12-16T02:15:18.723Z,9.656064
2018-12-16T02:15:31.081Z,9.656064
2018-12-16T02:15:43.425Z,9.656064
2018-12-16T02:15:55.770Z,9.656064
2018-12-16T02:16:08.204Z,8.04672
2018-12-16T02:16:20.533Z,8.04672
2018-12-16T02:16:32.874Z,8.04672
2018-12-16T02:16:45.209Z,8.04672
2018-12-16T02:16:57.567Z,8.04672
2018-12-16T02:17:09.983Z,9.656064
2018-12-16T02:17:22.428Z,9.656064
2018-12-16T02:17:34.782Z,9.656064
2018-12-16T02:17:47.214Z,9.656064
2018-12-16T02:17:59.581Z,9.656064
2018-12-16T02:18:11.944Z,6.437376
2018-12-16T02:18:24.331Z,6.437376
2018-12-16T02:18:36.669Z,6.437376
2018-12-16T02:18:49.016Z,6.437376
2018-12-16T02:19:01.422Z,6.437376
2018-12-16T02:19:13.834Z,4.828032
2018-12-16T02:19:26.187Z,6.437376
2018-12-16T02:19:38.672Z,6.437376
2018-12-16T02:19:51.002Z,6.437376
2018-12-16T02:20:03.360Z,3.218688
2018-12-16T02:20:15.694Z,11.265408
2018-12-16T02:20:28.034Z,11.265408
2018-12-16T02:20:40.367Z,11.265408
2018-12-16T02:20:52.696Z,11.265408
2018-12-16T02:21:05.020Z,6.437376
2018-12-16T02:21:17.340Z,6.437376
2018-12-16T02:21:29.829Z,6.437376
2018-12-16T02:21:42.163Z,8.04672
2018-12-16T02:21:54.499Z,8.04672
2018-12-16T02:22:06.855Z,6.437376
2018-12-16T02:22:19.212Z,8.04672
2018-12-16T02:22:31.543Z,8.04672
2018-12-16T02:22:43.970Z,8.04672
2018-12-16T02:23:02.619Z,8.04672
2018-12-16T02:23:14.988Z,8.04672
2018-12-16T02:23:27.408Z,8.04672
2018-12-16T02:23:39.763Z,9.656064
2018-12-16T02:23:52.131Z,9.656064
2018-12-16T02:24:04.464Z,1.609344
2018-12-16T02:24:16.822Z,1.609344
2018-12-16T02:24:29.229Z,6.437376
2018-12-16T02:24:41.590Z,6.437376
2018-12-16T02:24:54.002Z,6.437376
2018-12-16T02:25:06.499Z,1.609344
2018-12-16T02:25:18.855Z,3.218688
2018-12-16T02:25:31.192Z,9.656064
2018-12-16T02:25:43.543Z,9.656064